Terminal Aerodrome Forecast
Issued by NWS

Home | Current Version | Previous Version | Text Only | Print | Product List | Glossary On
Versions: 1 2 3 4 5 6 7 8 9 10 11 12 13 14
000
FTPA31 PHFO 272337
TAFHOG
TAF
PHOG 272337Z 2800/2824 06022G30KT P6SM FEW025 SCT050
     FM280400 05015G22KT P6SM FEW025 SCT050
     FM280800 05012G18KT P6SM FEW025 SCT050
     FM281000 05011KT P6SM FEW025
     FM281900 05015G22KT P6SM FEW025 SCT050
     FM282200 05022G30KT P6SM FEW025 SCT050=

USA.gov is the U.S. government's official web portal to all federal, state and local government web resources and services.